createdAt,value
2018-04-19T00:00:11.467Z,62.60
2018-04-19T00:05:13.751Z,63.00
2018-04-19T00:10:15.285Z,63.00
2018-04-19T00:15:16.831Z,63.60
2018-04-19T00:20:18.392Z,64.30
2018-04-19T00:25:19.952Z,64.30
2018-04-19T00:30:21.596Z,64.60
2018-04-19T00:35:23.150Z,65.70
2018-04-19T00:40:25.455Z,66.70
2018-04-19T00:45:27.018Z,66.70
2018-04-19T00:50:28.516Z,66.50
2018-04-19T00:55:30.024Z,66.90
2018-04-19T01:00:31.579Z,67.00
2018-04-19T01:05:33.243Z,67.30
2018-04-19T01:10:34.796Z,66.80
2018-04-19T01:15:36.356Z,66.50
2018-04-19T01:20:37.877Z,66.00
2018-04-19T01:25:40.140Z,66.30
2018-04-19T01:30:41.677Z,66.20
2018-04-19T01:36:01.981Z,66.60
2018-04-19T01:41:03.523Z,67.10
2018-04-19T01:46:05.094Z,67.60
2018-04-19T01:51:06.663Z,67.20
2018-04-19T01:56:08.249Z,66.90
2018-04-19T02:01:09.810Z,67.40
2018-04-19T02:06:11.379Z,67.80
2018-04-19T02:11:12.960Z,68.20
2018-04-19T02:16:14.521Z,68.80
2018-04-19T02:21:16.043Z,68.80
2018-04-19T02:26:17.652Z,68.90
2018-04-19T02:31:19.194Z,69.30
2018-04-19T02:36:21.531Z,70.00
2018-04-19T02:41:23.083Z,70.00
2018-04-19T02:46:24.667Z,70.20
2018-04-19T02:51:26.423Z,70.50
2018-04-19T02:56:27.960Z,70.70
2018-04-19T03:01:30.222Z,71.40
2018-04-19T03:06:31.812Z,71.40
2018-04-19T03:11:34.198Z,71.00
2018-04-19T03:16:36.502Z,70.80
2018-04-19T03:21:38.069Z,70.80
2018-04-19T03:26:39.644Z,71.00
2018-04-19T03:31:41.219Z,71.50
2018-04-19T03:36:49.910Z,71.00
2018-04-19T03:41:51.427Z,71.10
2018-04-19T03:46:52.971Z,71.40
2018-04-19T03:51:55.340Z,73.80
2018-04-19T03:56:57.680Z,74.10
2018-04-19T04:01:59.257Z,74.00
2018-04-19T04:07:00.823Z,74.00
2018-04-19T04:12:02.397Z,74.20
2018-04-19T04:17:22.554Z,74.60
2018-04-19T04:22:42.502Z,74.90
2018-04-19T04:27:44.185Z,74.80
2018-04-19T04:32:45.714Z,75.00
2018-04-19T04:37:47.287Z,74.70
2018-04-19T04:42:49.681Z,74.80
2018-04-19T04:47:51.236Z,74.40
2018-04-19T04:52:53.667Z,72.80
2018-04-19T04:57:55.222Z,72.60
2018-04-19T05:02:56.776Z,72.20
2018-04-19T05:07:58.330Z,71.60
2018-04-19T05:12:59.873Z,70.40
2018-04-19T05:18:01.576Z,68.60
2018-04-19T05:23:03.136Z,63.50
2018-04-19T05:28:04.672Z,58.90
2018-04-19T05:33:06.968Z,53.10
2018-04-19T05:38:08.513Z,53.00
2018-04-19T05:43:10.794Z,51.50
2018-04-19T05:48:13.074Z,49.00
2018-04-19T05:53:14.626Z,48.80
2018-04-19T05:58:16.231Z,47.70
2018-04-19T06:03:18.529Z,45.00
2018-04-19T06:08:20.068Z,45.00
2018-04-19T06:13:21.616Z,44.70
2018-04-19T06:18:23.199Z,44.20
2018-04-19T06:23:24.707Z,44.60
2018-04-19T06:28:26.242Z,44.70
2018-04-19T06:33:28.624Z,43.10
2018-04-19T06:38:30.207Z,43.10
2018-04-19T06:43:32.467Z,42.00
2018-04-19T06:48:34.034Z,42.00
2018-04-19T06:53:35.599Z,40.50
2018-04-19T06:58:37.163Z,38.10
2018-04-19T07:03:38.708Z,34.80
2018-04-19T07:08:40.219Z,38.10
2018-04-19T07:13:41.786Z,35.70
2018-04-19T07:18:43.393Z,35.70
2018-04-19T07:23:44.948Z,36.60
2018-04-19T07:28:46.525Z,36.40
2018-04-19T07:33:48.101Z,35.40
2018-04-19T07:38:49.690Z,35.20
2018-04-19T07:43:51.228Z,36.90
2018-04-19T07:48:52.767Z,36.70
2018-04-19T07:53:55.366Z,37.30
2018-04-19T07:58:57.824Z,40.70
2018-04-19T08:03:59.355Z,40.60
2018-04-19T08:09:00.959Z,40.60
2018-04-19T08:14:02.538Z,40.60
2018-04-19T08:19:04.100Z,42.10
2018-04-19T08:24:05.627Z,41.00
2018-04-19T08:29:07.151Z,42.70
2018-04-19T08:34:08.819Z,41.80
2018-04-19T08:39:10.372Z,38.10
2018-04-19T08:44:11.935Z,38.00
2018-04-19T08:49:13.570Z,39.80
2018-04-19T08:54:15.086Z,38.60
2018-04-19T08:59:16.771Z,38.30
2018-04-19T09:04:18.339Z,40.30
2018-04-19T09:09:19.848Z,40.60
2018-04-19T09:14:21.413Z,40.90
2018-04-19T09:19:23.159Z,38.50
2018-04-19T09:24:25.469Z,33.50
2018-04-19T09:29:27.727Z,32.40
2018-04-19T09:34:30.036Z,31.10
2018-04-19T09:39:31.624Z,31.00
2018-04-19T09:44:33.152Z,31.40
2018-04-19T09:49:35.492Z,33.90
2018-04-19T09:54:37.045Z,33.90
2018-04-19T09:59:38.585Z,33.60
2018-04-19T10:04:40.175Z,33.50
2018-04-19T10:09:41.780Z,32.50
2018-04-19T10:14:43.263Z,31.80
2018-04-19T10:19:44.785Z,31.40
2018-04-19T10:24:46.499Z,31.20
2018-04-19T10:29:48.017Z,28.60
2018-04-19T10:34:49.555Z,29.20
2018-04-19T10:39:51.834Z,29.10
2018-04-19T10:44:53.556Z,29.10
2018-04-19T10:49:55.102Z,26.30
2018-04-19T10:54:56.599Z,27.40
2018-04-19T10:59:58.188Z,24.50
2018-04-19T11:04:59.891Z,23.60
2018-04-19T11:10:02.399Z,23.40
2018-04-19T11:15:04.151Z,23.40
2018-04-19T11:20:06.533Z,27.20
2018-04-19T11:25:08.821Z,26.30
2018-04-19T11:30:11.144Z,24.00
2018-04-19T11:35:12.661Z,23.90
2018-04-19T11:40:14.188Z,26.80
2018-04-19T11:45:15.884Z,23.50
2018-04-19T11:50:17.417Z,25.80
2018-04-19T11:55:18.989Z,24.70
2018-04-19T12:00:20.525Z,22.00
2018-04-19T12:05:22.831Z,22.60
2018-04-19T12:10:24.426Z,22.60
2018-04-19T12:15:25.981Z,26.70
2018-04-19T12:20:27.566Z,25.30
2018-04-19T12:25:29.135Z,24.70
2018-04-19T12:30:30.726Z,20.00
2018-04-19T12:35:32.307Z,23.80
2018-04-19T12:40:33.872Z,21.30
2018-04-19T12:45:35.407Z,24.30
2018-04-19T12:50:36.920Z,20.70
2018-04-19T12:55:39.261Z,22.00
2018-04-19T13:00:40.797Z,21.90
2018-04-19T13:05:42.390Z,19.10
2018-04-19T13:10:44.150Z,19.50
2018-04-19T13:15:45.733Z,18.70
2018-04-19T13:20:47.311Z,18.60
2018-04-19T13:25:48.969Z,22.20
2018-04-19T13:30:50.491Z,19.10
2018-04-19T13:35:53.065Z,19.60
2018-04-19T13:41:01.767Z,19.60
2018-04-19T13:46:03.315Z,19.20
2018-04-19T13:51:04.898Z,18.60
2018-04-19T13:56:06.486Z,19.10
2018-04-19T14:01:08.148Z,19.00
2018-04-19T14:06:09.752Z,20.10
2018-04-19T14:11:11.357Z,18.90
2018-04-19T14:16:12.892Z,19.20
2018-04-19T14:21:14.599Z,21.10
2018-04-19T14:26:16.146Z,17.30
2018-04-19T14:31:18.462Z,17.40
2018-04-19T14:36:20.136Z,17.40
2018-04-19T14:41:21.692Z,18.20
2018-04-19T14:46:23.230Z,18.40
2018-04-19T14:51:24.778Z,18.00
2018-04-19T14:56:26.332Z,19.00
2018-04-19T15:01:27.903Z,19.40
2018-04-19T15:06:29.564Z,18.70
2018-04-19T15:11:31.124Z,18.60
2018-04-19T15:16:32.732Z,18.90
2018-04-19T15:21:34.289Z,17.00
2018-04-19T15:26:35.850Z,17.80
2018-04-19T15:31:37.447Z,17.90
2018-04-19T15:36:38.997Z,19.40
2018-04-19T15:41:40.586Z,18.10
2018-04-19T15:46:42.284Z,17.90
2018-04-19T15:51:43.881Z,17.40
2018-04-19T15:56:45.457Z,17.80
2018-04-19T16:01:47.020Z,18.00
2018-04-19T16:06:48.596Z,18.20
2018-04-19T16:11:53.081Z,16.90
2018-04-19T16:16:51.772Z,17.40
2018-04-19T16:21:53.309Z,17.60
2018-04-19T16:26:54.903Z,18.80
2018-04-19T16:31:56.488Z,17.90
2018-04-19T16:36:58.844Z,18.30
2018-04-19T16:42:00.559Z,18.30
2018-04-19T16:47:02.348Z,18.30
2018-04-19T16:52:03.921Z,19.10
2018-04-19T16:57:05.466Z,18.40
2018-04-19T17:02:07.736Z,19.70
2018-04-19T17:07:10.021Z,19.40
2018-04-19T17:12:12.533Z,19.20
2018-04-19T17:17:14.124Z,19.20
2018-04-19T17:22:15.707Z,19.60
2018-04-19T17:27:17.324Z,20.00
2018-04-19T17:32:19.810Z,20.40
2018-04-19T17:37:22.120Z,20.50
2018-04-19T17:42:23.947Z,20.60
2018-04-19T17:47:25.578Z,20.90
2018-04-19T17:52:27.154Z,21.00
2018-04-19T17:57:28.756Z,21.70
2018-04-19T18:02:30.289Z,22.50
2018-04-19T18:07:31.856Z,22.70
2018-04-19T18:12:33.715Z,22.80
2018-04-19T18:17:35.345Z,22.90
2018-04-19T18:22:36.918Z,23.30
2018-04-19T18:27:38.534Z,23.60
2018-04-19T18:32:40.184Z,24.10
2018-04-19T18:37:42.487Z,26.20
2018-04-19T18:42:44.234Z,26.10
2018-04-19T18:47:46.616Z,27.60
2018-04-19T18:52:49.045Z,29.60
2018-04-19T18:57:50.840Z,29.60
2018-04-19T19:02:52.456Z,32.80
2018-04-19T19:07:54.854Z,32.00
2018-04-19T19:12:57.207Z,34.70
2018-04-19T19:18:17.377Z,34.70
2018-04-19T19:23:19.054Z,34.60
2018-04-19T19:28:20.649Z,35.80
2018-04-19T19:33:22.428Z,36.10
2018-04-19T19:38:24.033Z,37.60
2018-04-19T19:43:25.568Z,38.60
2018-04-19T19:48:27.111Z,38.00
2018-04-19T19:53:28.721Z,39.30
2018-04-19T19:58:31.053Z,38.50
2018-04-19T20:03:32.609Z,38.50
2018-04-19T20:08:34.227Z,39.10
2018-04-19T20:13:35.844Z,39.00
2018-04-19T20:18:37.411Z,39.80
2018-04-19T20:23:38.991Z,41.10
2018-04-19T20:28:40.554Z,40.90
2018-04-19T20:33:42.151Z,41.20
2018-04-19T20:38:43.789Z,42.80
2018-04-19T20:43:45.368Z,42.40
2018-04-19T20:48:46.978Z,42.60
2018-04-19T20:53:48.587Z,43.10
2018-04-19T20:58:50.187Z,43.20
2018-04-19T21:03:51.846Z,44.30
2018-04-19T21:08:53.441Z,45.60
2018-04-19T21:13:55.001Z,46.20
2018-04-19T21:18:56.657Z,47.30
2018-04-19T21:23:58.246Z,48.10
2018-04-19T21:28:59.991Z,48.50
2018-04-19T21:34:01.585Z,48.90
2018-04-19T21:39:03.176Z,49.20
2018-04-19T21:44:04.754Z,49.60
2018-04-19T21:49:06.301Z,50.60
2018-04-19T21:54:07.897Z,51.50
2018-04-19T21:59:09.617Z,51.70
2018-04-19T22:04:11.332Z,52.70
2018-04-19T22:09:12.940Z,53.90
2018-04-19T22:14:14.547Z,55.00
2018-04-19T22:19:16.113Z,55.70
2018-04-19T22:24:17.785Z,55.90
2018-04-19T22:29:19.375Z,55.70
2018-04-19T22:34:21.014Z,55.00
2018-04-19T22:39:22.729Z,54.40
2018-04-19T22:44:25.088Z,53.00
2018-04-19T22:49:26.681Z,52.40
2018-04-19T22:54:28.228Z,50.40
2018-04-19T22:59:29.806Z,49.00
2018-04-19T23:04:31.527Z,48.20
2018-04-19T23:09:33.071Z,47.60
2018-04-19T23:14:35.569Z,48.90
2018-04-19T23:19:37.139Z,48.90
2018-04-19T23:24:39.551Z,51.60
2018-04-19T23:29:41.092Z,51.60
2018-04-19T23:34:43.379Z,52.60
2018-04-19T23:39:45.725Z,51.80
2018-04-19T23:44:47.313Z,51.80
2018-04-19T23:49:48.935Z,52.40
2018-04-19T23:54:50.572Z,52.10
2018-04-19T23:59:52.308Z,52.10
